sensor_id;sensor_type;location;lat;lon;timestamp;P1;durP1;ratioP1;P2;durP2;ratioP2
59093;SDS011;44880;52.814;18.270;2023-03-14T00:01:48;15.50;;;8.10;;
59093;SDS011;44880;52.814;18.270;2023-03-14T00:04:20;15.40;;;7.50;;
59093;SDS011;44880;52.814;18.270;2023-03-14T00:06:56;15.50;;;7.10;;
59093;SDS011;44880;52.814;18.270;2023-03-14T00:09:26;15.20;;;6.80;;
59093;SDS011;44880;52.814;18.270;2023-03-14T00:11:59;14.40;;;7.60;;
59093;SDS011;44880;52.814;18.270;2023-03-14T00:14:37;16.20;;;8.90;;
59093;SDS011;44880;52.814;18.270;2023-03-14T00:17:12;20.40;;;9.00;;
59093;SDS011;44880;52.814;18.270;2023-03-14T00:19:41;16.30;;;8.40;;
59093;SDS011;44880;52.814;18.270;2023-03-14T00:22:12;15.30;;;7.40;;
59093;SDS011;44880;52.814;18.270;2023-03-14T00:24:45;19.10;;;8.30;;
59093;SDS011;44880;52.814;18.270;2023-03-14T00:27:24;18.20;;;9.10;;
59093;SDS011;44880;52.814;18.270;2023-03-14T00:30:01;20.80;;;12.00;;
59093;SDS011;44880;52.814;18.270;2023-03-14T00:32:39;24.60;;;13.30;;
59093;SDS011;44880;52.814;18.270;2023-03-14T00:35:11;23.70;;;14.10;;
59093;SDS011;44880;52.814;18.270;2023-03-14T00:37:42;23.60;;;14.60;;
59093;SDS011;44880;52.814;18.270;2023-03-14T00:40:13;24.20;;;11.60;;
59093;SDS011;44880;52.814;18.270;2023-03-14T00:42:44;20.80;;;11.20;;
59093;SDS011;44880;52.814;18.270;2023-03-14T00:45:12;20.00;;;10.90;;
59093;SDS011;44880;52.814;18.270;2023-03-14T00:47:42;18.10;;;10.10;;
59093;SDS011;44880;52.814;18.270;2023-03-14T00:50:12;19.30;;;10.90;;
59093;SDS011;44880;52.814;18.270;2023-03-14T00:52:41;17.30;;;9.80;;
59093;SDS011;44880;52.814;18.270;2023-03-14T00:55:10;17.20;;;9.60;;
59093;SDS011;44880;52.814;18.270;2023-03-14T00:57:39;18.30;;;10.50;;
59093;SDS011;44880;52.814;18.270;2023-03-14T01:00:09;15.90;;;8.90;;
59093;SDS011;44880;52.814;18.270;2023-03-14T01:02:43;15.90;;;7.50;;
59093;SDS011;44880;52.814;18.270;2023-03-14T01:05:12;12.40;;;5.70;;
59093;SDS011;44880;52.814;18.270;2023-03-14T01:07:42;11.20;;;4.70;;
59093;SDS011;44880;52.814;18.270;2023-03-14T01:10:11;11.20;;;4.50;;
59093;SDS011;44880;52.814;18.270;2023-03-14T01:12:40;9.50;;;4.00;;
59093;SDS011;44880;52.814;18.270;2023-03-14T01:15:10;10.20;;;4.20;;
59093;SDS011;44880;52.814;18.270;2023-03-14T01:17:39;9.80;;;4.70;;
59093;SDS011;44880;52.814;18.270;2023-03-14T01:20:10;10.30;;;5.00;;
59093;SDS011;44880;52.814;18.270;2023-03-14T01:22:40;11.00;;;5.60;;
59093;SDS011;44880;52.814;18.270;2023-03-14T01:25:10;14.50;;;7.10;;
59093;SDS011;44880;52.814;18.270;2023-03-14T01:27:43;13.60;;;7.10;;
59093;SDS011;44880;52.814;18.270;2023-03-14T01:30:12;13.40;;;6.20;;
59093;SDS011;44880;52.814;18.270;2023-03-14T01:32:42;10.60;;;4.70;;
59093;SDS011;44880;52.814;18.270;2023-03-14T01:35:11;10.00;;;4.20;;
59093;SDS011;44880;52.814;18.270;2023-03-14T01:37:40;10.50;;;4.60;;
59093;SDS011;44880;52.814;18.270;2023-03-14T01:40:13;10.70;;;3.90;;
59093;SDS011;44880;52.814;18.270;2023-03-14T01:42:46;9.10;;;4.00;;
59093;SDS011;44880;52.814;18.270;2023-03-14T01:48:28;8.70;;;4.00;;
59093;SDS011;44880;52.814;18.270;2023-03-14T01:50:59;9.00;;;4.50;;
59093;SDS011;44880;52.814;18.270;2023-03-14T01:53:30;8.80;;;3.80;;
59093;SDS011;44880;52.814;18.270;2023-03-14T01:55:59;8.80;;;4.00;;
59093;SDS011;44880;52.814;18.270;2023-03-14T01:58:28;9.00;;;3.50;;
59093;SDS011;44880;52.814;18.270;2023-03-14T02:01:01;9.50;;;3.80;;
59093;SDS011;44880;52.814;18.270;2023-03-14T02:03:31;9.70;;;3.70;;
59093;SDS011;44880;52.814;18.270;2023-03-14T02:06:12;9.30;;;3.70;;
59093;SDS011;44880;52.814;18.270;2023-03-14T02:08:43;8.70;;;3.60;;
59093;SDS011;44880;52.814;18.270;2023-03-14T02:11:17;8.90;;;3.80;;
59093;SDS011;44880;52.814;18.270;2023-03-14T02:13:57;8.00;;;3.30;;
59093;SDS011;44880;52.814;18.270;2023-03-14T02:16:56;9.90;;;3.60;;
59093;SDS011;44880;52.814;18.270;2023-03-14T02:19:53;8.00;;;3.80;;
59093;SDS011;44880;52.814;18.270;2023-03-14T02:22:40;8.30;;;3.40;;
59093;SDS011;44880;52.814;18.270;2023-03-14T02:25:12;9.30;;;3.70;;
59093;SDS011;44880;52.814;18.270;2023-03-14T02:27:44;9.50;;;3.50;;
59093;SDS011;44880;52.814;18.270;2023-03-14T02:30:15;8.40;;;3.20;;
59093;SDS011;44880;52.814;18.270;2023-03-14T02:32:46;8.10;;;3.20;;
59093;SDS011;44880;52.814;18.270;2023-03-14T02:35:22;9.90;;;3.60;;
59093;SDS011;44880;52.814;18.270;2023-03-14T02:38:22;8.50;;;3.10;;
59093;SDS011;44880;52.814;18.270;2023-03-14T02:40:54;8.20;;;3.10;;
59093;SDS011;44880;52.814;18.270;2023-03-14T02:43:23;7.40;;;2.60;;
59093;SDS011;44880;52.814;18.270;2023-03-14T02:45:57;9.60;;;2.70;;
59093;SDS011;44880;52.814;18.270;2023-03-14T02:48:28;6.50;;;2.50;;
59093;SDS011;44880;52.814;18.270;2023-03-14T02:50:59;6.90;;;2.30;;
59093;SDS011;44880;52.814;18.270;2023-03-14T02:53:30;6.50;;;2.10;;
59093;SDS011;44880;52.814;18.270;2023-03-14T02:56:03;8.10;;;2.60;;
59093;SDS011;44880;52.814;18.270;2023-03-14T02:58:33;6.60;;;2.20;;
59093;SDS011;44880;52.814;18.270;2023-03-14T03:01:08;6.80;;;2.20;;
59093;SDS011;44880;52.814;18.270;2023-03-14T03:03:38;7.50;;;2.20;;
59093;SDS011;44880;52.814;18.270;2023-03-14T03:06:07;7.00;;;2.00;;
59093;SDS011;44880;52.814;18.270;2023-03-14T03:08:36;6.20;;;1.90;;
59093;SDS011;44880;52.814;18.270;2023-03-14T03:11:06;6.80;;;2.10;;
59093;SDS011;44880;52.814;18.270;2023-03-14T03:13:35;6.20;;;2.20;;
59093;SDS011;44880;52.814;18.270;2023-03-14T03:16:06;6.40;;;2.20;;
59093;SDS011;44880;52.814;18.270;2023-03-14T03:18:35;6.80;;;2.30;;
59093;SDS011;44880;52.814;18.270;2023-03-14T03:21:05;7.40;;;2.10;;
59093;SDS011;44880;52.814;18.270;2023-03-14T03:23:36;8.10;;;2.40;;
59093;SDS011;44880;52.814;18.270;2023-03-14T03:26:08;8.00;;;2.90;;
59093;SDS011;44880;52.814;18.270;2023-03-14T03:28:38;7.90;;;2.60;;
59093;SDS011;44880;52.814;18.270;2023-03-14T03:31:08;7.30;;;2.70;;
59093;SDS011;44880;52.814;18.270;2023-03-14T03:33:38;7.80;;;2.80;;
59093;SDS011;44880;52.814;18.270;2023-03-14T03:36:09;8.80;;;3.20;;
59093;SDS011;44880;52.814;18.270;2023-03-14T03:38:40;8.20;;;3.20;;
59093;SDS011;44880;52.814;18.270;2023-03-14T03:41:09;8.40;;;3.40;;
59093;SDS011;44880;52.814;18.270;2023-03-14T03:43:38;9.10;;;3.50;;
59093;SDS011;44880;52.814;18.270;2023-03-14T03:46:09;8.30;;;3.30;;
59093;SDS011;44880;52.814;18.270;2023-03-14T03:48:38;8.30;;;3.10;;
59093;SDS011;44880;52.814;18.270;2023-03-14T03:51:08;8.50;;;3.20;;
59093;SDS011;44880;52.814;18.270;2023-03-14T03:53:41;8.50;;;3.60;;
59093;SDS011;44880;52.814;18.270;2023-03-14T03:56:12;8.20;;;3.20;;
59093;SDS011;44880;52.814;18.270;2023-03-14T03:58:41;8.00;;;3.50;;
59093;SDS011;44880;52.814;18.270;2023-03-14T04:01:10;7.90;;;3.40;;
59093;SDS011;44880;52.814;18.270;2023-03-14T04:03:39;11.30;;;3.60;;
59093;SDS011;44880;52.814;18.270;2023-03-14T04:06:09;9.60;;;3.70;;
59093;SDS011;44880;52.814;18.270;2023-03-14T04:08:40;8.50;;;4.00;;
59093;SDS011;44880;52.814;18.270;2023-03-14T04:11:14;10.60;;;3.70;;
59093;SDS011;44880;52.814;18.270;2023-03-14T04:13:55;10.50;;;3.90;;
59093;SDS011;44880;52.814;18.270;2023-03-14T04:16:24;9.20;;;4.20;;
59093;SDS011;44880;52.814;18.270;2023-03-14T04:19:01;10.80;;;4.30;;
59093;SDS011;44880;52.814;18.270;2023-03-14T04:21:31;8.30;;;3.70;;
59093;SDS011;44880;52.814;18.270;2023-03-14T04:24:00;10.10;;;5.20;;
59093;SDS011;44880;52.814;18.270;2023-03-14T04:29:00;21.30;;;12.20;;
59093;SDS011;44880;52.814;18.270;2023-03-14T04:31:28;22.90;;;12.30;;
59093;SDS011;44880;52.814;18.270;2023-03-14T04:33:57;18.70;;;10.80;;
59093;SDS011;44880;52.814;18.270;2023-03-14T04:36:35;21.70;;;12.20;;
59093;SDS011;44880;52.814;18.270;2023-03-14T04:39:06;22.80;;;12.30;;
59093;SDS011;44880;52.814;18.270;2023-03-14T04:41:38;21.30;;;12.30;;
59093;SDS011;44880;52.814;18.270;2023-03-14T04:44:08;22.80;;;11.90;;
59093;SDS011;44880;52.814;18.270;2023-03-14T04:46:37;18.60;;;10.70;;
59093;SDS011;44880;52.814;18.270;2023-03-14T04:49:07;14.70;;;8.00;;
59093;SDS011;44880;52.814;18.270;2023-03-14T04:51:36;11.90;;;6.00;;
59093;SDS011;44880;52.814;18.270;2023-03-14T04:54:06;13.70;;;6.10;;
59093;SDS011;44880;52.814;18.270;2023-03-14T04:56:34;13.00;;;5.80;;
59093;SDS011;44880;52.814;18.270;2023-03-14T04:59:04;13.00;;;7.20;;
59093;SDS011;44880;52.814;18.270;2023-03-14T05:01:35;17.30;;;9.80;;
59093;SDS011;44880;52.814;18.270;2023-03-14T05:04:23;22.80;;;14.70;;
59093;SDS011;44880;52.814;18.270;2023-03-14T05:07:15;17.60;;;10.00;;
59093;SDS011;44880;52.814;18.270;2023-03-14T05:09:55;16.60;;;8.60;;
59093;SDS011;44880;52.814;18.270;2023-03-14T05:12:42;21.50;;;11.60;;
59093;SDS011;44880;52.814;18.270;2023-03-14T05:15:37;18.20;;;10.40;;
59093;SDS011;44880;52.814;18.270;2023-03-14T05:18:26;18.10;;;11.50;;
59093;SDS011;44880;52.814;18.270;2023-03-14T05:21:21;23.00;;;12.90;;
59093;SDS011;44880;52.814;18.270;2023-03-14T05:24:10;26.40;;;15.40;;
59093;SDS011;44880;52.814;18.270;2023-03-14T05:26:58;28.60;;;18.60;;
59093;SDS011;44880;52.814;18.270;2023-03-14T05:29:47;29.30;;;18.90;;
59093;SDS011;44880;52.814;18.270;2023-03-14T05:32:27;28.60;;;18.40;;
59093;SDS011;44880;52.814;18.270;2023-03-14T05:35:11;33.20;;;20.70;;
59093;SDS011;44880;52.814;18.270;2023-03-14T05:37:49;28.80;;;17.60;;
59093;SDS011;44880;52.814;18.270;2023-03-14T05:40:31;27.90;;;15.80;;
59093;SDS011;44880;52.814;18.270;2023-03-14T05:43:12;26.50;;;14.20;;
59093;SDS011;44880;52.814;18.270;2023-03-14T05:46:09;22.70;;;13.00;;
59093;SDS011;44880;52.814;18.270;2023-03-14T05:48:51;24.00;;;14.20;;
59093;SDS011;44880;52.814;18.270;2023-03-14T05:51:43;19.10;;;9.90;;
59093;SDS011;44880;52.814;18.270;2023-03-14T05:54:35;19.40;;;11.10;;
59093;SDS011;44880;52.814;18.270;2023-03-14T05:57:18;17.20;;;10.10;;
59093;SDS011;44880;52.814;18.270;2023-03-14T06:00:07;22.00;;;12.90;;
59093;SDS011;44880;52.814;18.270;2023-03-14T06:02:47;19.50;;;10.80;;
59093;SDS011;44880;52.814;18.270;2023-03-14T06:05:20;17.40;;;8.30;;
59093;SDS011;44880;52.814;18.270;2023-03-14T06:07:49;18.20;;;9.10;;
59093;SDS011;44880;52.814;18.270;2023-03-14T06:10:19;16.80;;;9.70;;
59093;SDS011;44880;52.814;18.270;2023-03-14T06:12:48;14.40;;;7.70;;
59093;SDS011;44880;52.814;18.270;2023-03-14T06:15:17;16.80;;;8.80;;
59093;SDS011;44880;52.814;18.270;2023-03-14T06:17:48;16.60;;;9.50;;
59093;SDS011;44880;52.814;18.270;2023-03-14T06:20:23;17.00;;;8.60;;
59093;SDS011;44880;52.814;18.270;2023-03-14T06:22:52;16.90;;;8.80;;
59093;SDS011;44880;52.814;18.270;2023-03-14T06:25:22;15.80;;;8.70;;
59093;SDS011;44880;52.814;18.270;2023-03-14T06:27:51;15.00;;;8.40;;
59093;SDS011;44880;52.814;18.270;2023-03-14T06:30:20;16.80;;;8.80;;
59093;SDS011;44880;52.814;18.270;2023-03-14T06:32:50;16.80;;;8.50;;
59093;SDS011;44880;52.814;18.270;2023-03-14T06:35:20;15.50;;;8.20;;
59093;SDS011;44880;52.814;18.270;2023-03-14T06:37:49;16.10;;;7.20;;
59093;SDS011;44880;52.814;18.270;2023-03-14T06:40:19;13.50;;;6.50;;
59093;SDS011;44880;52.814;18.270;2023-03-14T06:43:04;16.00;;;6.50;;
59093;SDS011;44880;52.814;18.270;2023-03-14T06:45:33;12.90;;;6.50;;
59093;SDS011;44880;52.814;18.270;2023-03-14T06:48:03;11.00;;;6.10;;
59093;SDS011;44880;52.814;18.270;2023-03-14T06:50:49;12.20;;;6.60;;
59093;SDS011;44880;52.814;18.270;2023-03-14T06:53:18;10.50;;;6.20;;
59093;SDS011;44880;52.814;18.270;2023-03-14T06:55:47;12.10;;;6.40;;
59093;SDS011;44880;52.814;18.270;2023-03-14T06:58:18;11.10;;;6.00;;
59093;SDS011;44880;52.814;18.270;2023-03-14T07:00:47;11.30;;;5.50;;
59093;SDS011;44880;52.814;18.270;2023-03-14T07:03:21;11.50;;;6.10;;
59093;SDS011;44880;52.814;18.270;2023-03-14T07:05:51;12.00;;;6.50;;
59093;SDS011;44880;52.814;18.270;2023-03-14T07:08:20;11.60;;;5.90;;
59093;SDS011;44880;52.814;18.270;2023-03-14T07:10:55;12.30;;;5.60;;
59093;SDS011;44880;52.814;18.270;2023-03-14T07:13:26;13.10;;;6.80;;
59093;SDS011;44880;52.814;18.270;2023-03-14T07:16:02;14.60;;;6.80;;
59093;SDS011;44880;52.814;18.270;2023-03-14T07:18:33;12.70;;;6.70;;
59093;SDS011;44880;52.814;18.270;2023-03-14T07:21:07;13.40;;;6.90;;
59093;SDS011;44880;52.814;18.270;2023-03-14T07:23:37;16.70;;;6.80;;
59093;SDS011;44880;52.814;18.270;2023-03-14T07:26:08;11.30;;;6.30;;
59093;SDS011;44880;52.814;18.270;2023-03-14T07:28:40;12.30;;;6.40;;
59093;SDS011;44880;52.814;18.270;2023-03-14T07:31:26;15.60;;;7.50;;
59093;SDS011;44880;52.814;18.270;2023-03-14T07:33:55;14.40;;;6.50;;
59093;SDS011;44880;52.814;18.270;2023-03-14T07:36:31;16.40;;;6.90;;
59093;SDS011;44880;52.814;18.270;2023-03-14T07:39:45;13.20;;;5.80;;
59093;SDS011;44880;52.814;18.270;2023-03-14T07:42:30;13.50;;;5.70;;
59093;SDS011;44880;52.814;18.270;2023-03-14T07:45:20;15.80;;;6.60;;
59093;SDS011;44880;52.814;18.270;2023-03-14T07:47:49;16.60;;;7.10;;
59093;SDS011;44880;52.814;18.270;2023-03-14T07:50:27;13.20;;;6.30;;
59093;SDS011;44880;52.814;18.270;2023-03-14T07:52:56;14.80;;;7.10;;
59093;SDS011;44880;52.814;18.270;2023-03-14T07:55:25;12.40;;;6.00;;
59093;SDS011;44880;52.814;18.270;2023-03-14T07:57:54;12.60;;;6.00;;
59093;SDS011;44880;52.814;18.270;2023-03-14T08:00:24;11.60;;;6.50;;
59093;SDS011;44880;52.814;18.270;2023-03-14T08:03:05;11.60;;;5.60;;
59093;SDS011;44880;52.814;18.270;2023-03-14T08:05:35;11.70;;;5.90;;
59093;SDS011;44880;52.814;18.270;2023-03-14T08:08:04;11.50;;;5.40;;
59093;SDS011;44880;52.814;18.270;2023-03-14T08:10:40;10.30;;;5.20;;
59093;SDS011;44880;52.814;18.270;2023-03-14T08:13:09;11.10;;;5.70;;
59093;SDS011;44880;52.814;18.270;2023-03-14T08:15:39;12.70;;;6.30;;
59093;SDS011;44880;52.814;18.270;2023-03-14T08:18:08;11.70;;;6.00;;
59093;SDS011;44880;52.814;18.270;2023-03-14T08:20:37;11.90;;;5.80;;
59093;SDS011;44880;52.814;18.270;2023-03-14T08:23:17;14.40;;;6.50;;
59093;SDS011;44880;52.814;18.270;2023-03-14T08:25:49;12.10;;;6.20;;
59093;SDS011;44880;52.814;18.270;2023-03-14T08:28:19;13.00;;;6.30;;
59093;SDS011;44880;52.814;18.270;2023-03-14T08:30:52;11.30;;;5.90;;
59093;SDS011;44880;52.814;18.270;2023-03-14T08:33:25;12.30;;;5.70;;
59093;SDS011;44880;52.814;18.270;2023-03-14T08:35:54;9.70;;;4.60;;
59093;SDS011;44880;52.814;18.270;2023-03-14T08:38:24;11.10;;;5.00;;
59093;SDS011;44880;52.814;18.270;2023-03-14T08:40:59;11.00;;;5.10;;
59093;SDS011;44880;52.814;18.270;2023-03-14T08:43:36;13.80;;;5.80;;
59093;SDS011;44880;52.814;18.270;2023-03-14T08:46:05;9.50;;;4.60;;
59093;SDS011;44880;52.814;18.270;2023-03-14T08:48:34;11.20;;;4.90;;
59093;SDS011;44880;52.814;18.270;2023-03-14T08:51:13;10.70;;;4.90;;
59093;SDS011;44880;52.814;18.270;2023-03-14T08:53:44;11.60;;;4.90;;
59093;SDS011;44880;52.814;18.270;2023-03-14T08:56:13;11.70;;;4.50;;
59093;SDS011;44880;52.814;18.270;2023-03-14T08:58:42;11.90;;;4.40;;
59093;SDS011;44880;52.814;18.270;2023-03-14T09:01:11;10.10;;;4.10;;
59093;SDS011;44880;52.814;18.270;2023-03-14T09:03:53;10.20;;;4.30;;
59093;SDS011;44880;52.814;18.270;2023-03-14T09:06:22;9.90;;;4.00;;
59093;SDS011;44880;52.814;18.270;2023-03-14T09:08:51;8.50;;;3.40;;
59093;SDS011;44880;52.814;18.270;2023-03-14T09:11:33;8.80;;;3.70;;
59093;SDS011;44880;52.814;18.270;2023-03-14T09:14:02;9.90;;;3.80;;
59093;SDS011;44880;52.814;18.270;2023-03-14T09:16:32;8.40;;;3.40;;
59093;SDS011;44880;52.814;18.270;2023-03-14T09:19:03;8.70;;;3.20;;
59093;SDS011;44880;52.814;18.270;2023-03-14T09:21:40;7.80;;;2.80;;
59093;SDS011;44880;52.814;18.270;2023-03-14T09:24:09;8.40;;;3.30;;
59093;SDS011;44880;52.814;18.270;2023-03-14T09:26:45;8.20;;;3.00;;
59093;SDS011;44880;52.814;18.270;2023-03-14T09:29:33;8.20;;;3.20;;
59093;SDS011;44880;52.814;18.270;2023-03-14T09:32:03;7.80;;;2.80;;
59093;SDS011;44880;52.814;18.270;2023-03-14T09:34:38;8.30;;;3.10;;
59093;SDS011;44880;52.814;18.270;2023-03-14T09:37:24;9.20;;;3.40;;
59093;SDS011;44880;52.814;18.270;2023-03-14T09:39:53;9.20;;;3.70;;
59093;SDS011;44880;52.814;18.270;2023-03-14T09:42:23;10.20;;;3.00;;
59093;SDS011;44880;52.814;18.270;2023-03-14T09:45:17;9.20;;;3.90;;
59093;SDS011;44880;52.814;18.270;2023-03-14T09:47:50;9.20;;;3.60;;
59093;SDS011;44880;52.814;18.270;2023-03-14T09:50:22;9.40;;;3.60;;
59093;SDS011;44880;52.814;18.270;2023-03-14T09:52:56;8.90;;;3.60;;
59093;SDS011;44880;52.814;18.270;2023-03-14T09:55:38;15.10;;;9.60;;
59093;SDS011;44880;52.814;18.270;2023-03-14T09:58:09;10.70;;;5.00;;
59093;SDS011;44880;52.814;18.270;2023-03-14T10:01:07;16.90;;;12.00;;
59093;SDS011;44880;52.814;18.270;2023-03-14T10:03:40;11.90;;;4.80;;
59093;SDS011;44880;52.814;18.270;2023-03-14T10:06:11;9.80;;;4.00;;
59093;SDS011;44880;52.814;18.270;2023-03-14T10:08:59;10.40;;;5.10;;
59093;SDS011;44880;52.814;18.270;2023-03-14T10:11:28;8.50;;;3.30;;
59093;SDS011;44880;52.814;18.270;2023-03-14T10:14:05;9.10;;;3.10;;
59093;SDS011;44880;52.814;18.270;2023-03-14T10:16:47;8.70;;;2.90;;
59093;SDS011;44880;52.814;18.270;2023-03-14T10:19:18;8.50;;;2.90;;
59093;SDS011;44880;52.814;18.270;2023-03-14T10:24:51;10.30;;;3.40;;
59093;SDS011;44880;52.814;18.270;2023-03-14T10:27:21;8.40;;;3.00;;
59093;SDS011;44880;52.814;18.270;2023-03-14T10:30:07;10.00;;;3.30;;
59093;SDS011;44880;52.814;18.270;2023-03-14T10:32:54;7.50;;;2.30;;
59093;SDS011;44880;52.814;18.270;2023-03-14T10:35:26;8.90;;;2.90;;
59093;SDS011;44880;52.814;18.270;2023-03-14T10:38:25;9.50;;;3.40;;
59093;SDS011;44880;52.814;18.270;2023-03-14T10:40:55;9.20;;;3.90;;
59093;SDS011;44880;52.814;18.270;2023-03-14T10:43:37;10.20;;;3.50;;
59093;SDS011;44880;52.814;18.270;2023-03-14T10:46:09;12.40;;;4.10;;
59093;SDS011;44880;52.814;18.270;2023-03-14T10:49:00;9.40;;;3.10;;
59093;SDS011;44880;52.814;18.270;2023-03-14T10:52:02;9.60;;;3.90;;
59093;SDS011;44880;52.814;18.270;2023-03-14T10:55:10;10.10;;;4.50;;
59093;SDS011;44880;52.814;18.270;2023-03-14T10:57:40;10.50;;;4.70;;
59093;SDS011;44880;52.814;18.270;2023-03-14T11:00:15;9.20;;;3.50;;
59093;SDS011;44880;52.814;18.270;2023-03-14T11:03:04;11.10;;;4.60;;
59093;SDS011;44880;52.814;18.270;2023-03-14T11:05:38;9.20;;;3.10;;
59093;SDS011;44880;52.814;18.270;2023-03-14T11:08:20;8.20;;;2.80;;
59093;SDS011;44880;52.814;18.270;2023-03-14T11:10:56;10.40;;;3.70;;
59093;SDS011;44880;52.814;18.270;2023-03-14T11:13:33;10.00;;;3.40;;
59093;SDS011;44880;52.814;18.270;2023-03-14T11:16:16;8.00;;;2.70;;
59093;SDS011;44880;52.814;18.270;2023-03-14T11:19:06;9.20;;;2.30;;
59093;SDS011;44880;52.814;18.270;2023-03-14T11:22:08;6.70;;;2.10;;
59093;SDS011;44880;52.814;18.270;2023-03-14T11:24:47;9.70;;;3.10;;
59093;SDS011;44880;52.814;18.270;2023-03-14T11:27:30;9.90;;;3.40;;
59093;SDS011;44880;52.814;18.270;2023-03-14T11:30:20;10.20;;;3.00;;
59093;SDS011;44880;52.814;18.270;2023-03-14T11:32:55;8.60;;;2.80;;
59093;SDS011;44880;52.814;18.270;2023-03-14T11:35:41;9.80;;;2.60;;
59093;SDS011;44880;52.814;18.270;2023-03-14T11:38:19;9.30;;;2.90;;
59093;SDS011;44880;52.814;18.270;2023-03-14T11:40:59;7.90;;;2.40;;
59093;SDS011;44880;52.814;18.270;2023-03-14T11:43:56;10.30;;;3.80;;
59093;SDS011;44880;52.814;18.270;2023-03-14T11:46:27;10.20;;;4.20;;
59093;SDS011;44880;52.814;18.270;2023-03-14T11:49:16;9.80;;;3.70;;
59093;SDS011;44880;52.814;18.270;2023-03-14T11:51:51;10.40;;;3.70;;
59093;SDS011;44880;52.814;18.270;2023-03-14T11:54:33;9.50;;;3.90;;
59093;SDS011;44880;52.814;18.270;2023-03-14T11:57:05;9.30;;;4.40;;
59093;SDS011;44880;52.814;18.270;2023-03-14T11:59:41;9.90;;;4.30;;
59093;SDS011;44880;52.814;18.270;2023-03-14T12:02:25;11.00;;;4.30;;
59093;SDS011;44880;52.814;18.270;2023-03-14T12:05:16;11.50;;;4.30;;
59093;SDS011;44880;52.814;18.270;2023-03-14T12:08:01;10.40;;;4.20;;
59093;SDS011;44880;52.814;18.270;2023-03-14T12:10:52;10.90;;;5.10;;
59093;SDS011;44880;52.814;18.270;2023-03-14T12:13:28;11.10;;;4.20;;
59093;SDS011;44880;52.814;18.270;2023-03-14T12:16:19;9.50;;;4.00;;
59093;SDS011;44880;52.814;18.270;2023-03-14T12:18:58;11.60;;;4.00;;
59093;SDS011;44880;52.814;18.270;2023-03-14T12:22:17;9.50;;;3.80;;
59093;SDS011;44880;52.814;18.270;2023-03-14T12:25:15;11.80;;;4.40;;
59093;SDS011;44880;52.814;18.270;2023-03-14T12:30:51;11.10;;;3.90;;
59093;SDS011;44880;52.814;18.270;2023-03-14T12:33:21;9.60;;;4.00;;
59093;SDS011;44880;52.814;18.270;2023-03-14T12:35:59;10.50;;;3.50;;
59093;SDS011;44880;52.814;18.270;2023-03-14T12:38:48;10.10;;;4.00;;
59093;SDS011;44880;52.814;18.270;2023-03-14T12:41:26;10.20;;;3.60;;
59093;SDS011;44880;52.814;18.270;2023-03-14T12:47:14;9.60;;;3.70;;
59093;SDS011;44880;52.814;18.270;2023-03-14T12:50:14;10.70;;;3.80;;
59093;SDS011;44880;52.814;18.270;2023-03-14T12:59:37;8.70;;;3.70;;
59093;SDS011;44880;52.814;18.270;2023-03-14T13:02:26;8.10;;;3.40;;
59093;SDS011;44880;52.814;18.270;2023-03-14T13:05:03;8.90;;;3.50;;
59093;SDS011;44880;52.814;18.270;2023-03-14T13:10:42;8.70;;;2.80;;
59093;SDS011;44880;52.814;18.270;2023-03-14T13:13:21;9.00;;;3.00;;
59093;SDS011;44880;52.814;18.270;2023-03-14T13:15:55;9.40;;;3.20;;
59093;SDS011;44880;52.814;18.270;2023-03-14T13:18:28;10.70;;;3.50;;
59093;SDS011;44880;52.814;18.270;2023-03-14T13:21:02;8.30;;;3.00;;
59093;SDS011;44880;52.814;18.270;2023-03-14T13:23:54;8.50;;;3.00;;
59093;SDS011;44880;52.814;18.270;2023-03-14T13:26:31;7.70;;;2.50;;
59093;SDS011;44880;52.814;18.270;2023-03-14T13:29:11;8.00;;;3.10;;
59093;SDS011;44880;52.814;18.270;2023-03-14T13:31:44;10.50;;;2.80;;
59093;SDS011;44880;52.814;18.270;2023-03-14T13:34:14;7.90;;;2.80;;
59093;SDS011;44880;52.814;18.270;2023-03-14T13:36:51;8.60;;;3.00;;
59093;SDS011;44880;52.814;18.270;2023-03-14T13:39:33;8.90;;;2.70;;
59093;SDS011;44880;52.814;18.270;2023-03-14T13:42:13;8.40;;;2.60;;
59093;SDS011;44880;52.814;18.270;2023-03-14T13:44:43;8.10;;;3.00;;
59093;SDS011;44880;52.814;18.270;2023-03-14T13:47:27;8.30;;;3.00;;
59093;SDS011;44880;52.814;18.270;2023-03-14T13:49:56;10.10;;;3.30;;
59093;SDS011;44880;52.814;18.270;2023-03-14T13:55:20;9.40;;;3.40;;
59093;SDS011;44880;52.814;18.270;2023-03-14T13:57:51;8.90;;;3.20;;
59093;SDS011;44880;52.814;18.270;2023-03-14T14:00:26;10.10;;;3.40;;
59093;SDS011;44880;52.814;18.270;2023-03-14T14:06:04;11.00;;;3.20;;
59093;SDS011;44880;52.814;18.270;2023-03-14T14:08:51;8.30;;;3.30;;
59093;SDS011;44880;52.814;18.270;2023-03-14T14:11:25;10.40;;;3.10;;
59093;SDS011;44880;52.814;18.270;2023-03-14T14:14:12;9.30;;;3.40;;
59093;SDS011;44880;52.814;18.270;2023-03-14T14:16:46;8.20;;;3.10;;
59093;SDS011;44880;52.814;18.270;2023-03-14T14:19:15;11.70;;;3.30;;
59093;SDS011;44880;52.814;18.270;2023-03-14T14:21:45;8.40;;;2.90;;
59093;SDS011;44880;52.814;18.270;2023-03-14T14:24:41;8.70;;;3.20;;
59093;SDS011;44880;52.814;18.270;2023-03-14T14:27:12;10.60;;;3.50;;
59093;SDS011;44880;52.814;18.270;2023-03-14T14:29:44;9.10;;;3.80;;
59093;SDS011;44880;52.814;18.270;2023-03-14T14:32:35;10.10;;;4.00;;
59093;SDS011;44880;52.814;18.270;2023-03-14T14:35:22;10.50;;;3.60;;
59093;SDS011;44880;52.814;18.270;2023-03-14T14:41:00;8.40;;;3.30;;
59093;SDS011;44880;52.814;18.270;2023-03-14T14:43:48;9.60;;;3.60;;
59093;SDS011;44880;52.814;18.270;2023-03-14T14:46:18;9.70;;;3.40;;
59093;SDS011;44880;52.814;18.270;2023-03-14T14:48:54;8.90;;;3.20;;
59093;SDS011;44880;52.814;18.270;2023-03-14T14:51:41;8.80;;;3.40;;
59093;SDS011;44880;52.814;18.270;2023-03-14T14:54:12;7.80;;;2.90;;
59093;SDS011;44880;52.814;18.270;2023-03-14T14:56:49;9.50;;;3.50;;
59093;SDS011;44880;52.814;18.270;2023-03-14T14:59:41;9.20;;;3.20;;
59093;SDS011;44880;52.814;18.270;2023-03-14T15:05:12;8.90;;;3.50;;
59093;SDS011;44880;52.814;18.270;2023-03-14T15:07:51;10.30;;;3.60;;
59093;SDS011;44880;52.814;18.270;2023-03-14T15:10:20;10.80;;;3.60;;
59093;SDS011;44880;52.814;18.270;2023-03-14T15:13:06;9.10;;;3.40;;
59093;SDS011;44880;52.814;18.270;2023-03-14T15:15:42;8.20;;;3.40;;
59093;SDS011;44880;52.814;18.270;2023-03-14T15:19:20;8.50;;;3.30;;
59093;SDS011;44880;52.814;18.270;2023-03-14T15:22:07;11.00;;;3.60;;
59093;SDS011;44880;52.814;18.270;2023-03-14T15:24:38;9.50;;;3.40;;
59093;SDS011;44880;52.814;18.270;2023-03-14T15:27:12;8.40;;;3.30;;
59093;SDS011;44880;52.814;18.270;2023-03-14T15:32:49;8.40;;;3.10;;
59093;SDS011;44880;52.814;18.270;2023-03-14T15:35:18;9.70;;;4.10;;
59093;SDS011;44880;52.814;18.270;2023-03-14T15:37:52;8.80;;;3.20;;
59093;SDS011;44880;52.814;18.270;2023-03-14T15:40:26;9.80;;;3.10;;
59093;SDS011;44880;52.814;18.270;2023-03-14T15:42:57;9.50;;;3.50;;
59093;SDS011;44880;52.814;18.270;2023-03-14T15:45:26;9.20;;;3.60;;
59093;SDS011;44880;52.814;18.270;2023-03-14T15:48:04;9.60;;;3.40;;
59093;SDS011;44880;52.814;18.270;2023-03-14T15:50:34;11.40;;;3.80;;
59093;SDS011;44880;52.814;18.270;2023-03-14T15:53:06;8.60;;;3.60;;
59093;SDS011;44880;52.814;18.270;2023-03-14T15:56:11;10.50;;;4.10;;
59093;SDS011;44880;52.814;18.270;2023-03-14T15:58:44;9.60;;;3.80;;